Flight Track Log - Related Links

Times and Time Zones

All times are in EDT time to prevent confusion due to time zone crossing. See the N695BK flight status page for this flight to view local times or setup timezone preferences in your user account.

Time Position Orientation Groundspeed Altitude Reporting Facility
EDT Latitude Longitude Course Direction KTS MPH feet Rate Location/Type
Mon 03:56:12 PM 48.2919 -114.2736 96° East 158 182 3,900  Level Salt Lake Center
Mon 03:57:13 PM 48.2358 -114.2719 179° South 253 291 6,500 2,927 Climbing Salt Lake Center
Mon 03:58:15 PM 48.1964 -114.1831 124° Southeast 256 295 9,900 2,976 Climbing Salt Lake Center
Mon 03:59:16 PM 48.1861 -114.0653 97° East 289 333 12,600 3,122 Climbing Salt Lake Center
Mon 04:00:00 PM 48.3000 -113.2315 90° East  Level FlightAware Approximate
Mon 04:00:18 PM 48.1869 -113.9389 89° East 302 348 16,300  Level Salt Lake Center
Mon 04:01:00 PM 48.2962 -113.0621 96° East  Level FlightAware Approximate
Mon 04:01:19 PM 48.1856 -113.8125 91° East 304 350 19,100  Level Salt Lake Center
Mon 04:02:21 PM 48.1858 -113.6792 90° East 316 364 21,500 2,439 Climbing Salt Lake Center
Mon 04:03:22 PM 48.1856 -113.5092 90° East 337 388 24,100 1,854 Climbing Salt Lake Center
Mon 04:04:24 PM 48.1856 -113.3558 90° East 364 419 25,300 1,073 Climbing Salt Lake Center
Mon 04:05:25 PM 48.1844 -113.1836 90° East 407 468 26,300 885 Climbing Salt Lake Center
Mon 04:06:26 PM 48.1825 -112.9939 91° East 450 518 27,100 780 Climbing Salt Lake Center
Mon 04:07:28 PM 48.1819 -112.7925 90° East 477 549 27,900 878 Climbing Salt Lake Center
Mon 04:08:29 PM 48.1792 -112.5861 91° East 493 567 28,900 976 Climbing Salt Lake Center
Mon 04:09:31 PM 48.1775 -112.3683 91° East 496 571 29,900 976 Climbing Salt Lake Center
Mon 04:10:32 PM 48.1761 -112.1628 91° East 494 568 30,900 984 Climbing Salt Lake Center
Mon 04:11:33 PM 48.1725 -111.9592 91° East 491 565 31,900 976 Climbing Salt Lake Center
Mon 04:12:35 PM 48.1686 -111.7592 92° East 483 556 32,900 1,024 Climbing Salt Lake Center
Mon 04:13:36 PM 48.1658 -111.5611 91° East 477 549 34,000 1,024 Climbing Salt Lake Center
Mon 04:14:38 PM 48.1606 -111.3650 92° East 472 543 35,000 927 Climbing Salt Lake Center
Mon 04:15:39 PM 48.1567 -111.1708 92° East 467 537 35,900 787 Climbing Salt Lake Center
Mon 04:16:40 PM 48.1525 -110.9783 92° East 463 533 36,600 537 Climbing Salt Lake Center
Mon 04:17:42 PM 48.1472 -110.7494 92° East 458 527 37,000 195 Climbing Salt Lake Center
Mon 04:18:43 PM 48.1408 -110.5519 93° East 468 539 37,000  Level Salt Lake Center
Mon 04:19:44 PM 48.1364 -110.3508 92° East 478 550 37,000  Level Salt Lake Center
Mon 04:20:46 PM 48.1306 -110.1464 92° East 486 559 37,000  Level Salt Lake Center
Mon 04:21:47 PM 48.1233 -109.9397 93° East 494 568 37,000  Level Salt Lake Center
Mon 04:22:49 PM 48.1167 -109.7317 93° East 500 575 37,000  Level Salt Lake Center
Mon 04:23:50 PM 48.1106 -109.5233 92° East 501 577 37,000  Level Salt Lake Center
Mon 04:24:51 PM 48.1011 -109.3150 94° East 502 578 37,000  Level Salt Lake Center
Mon 04:25:53 PM 48.0933 -109.1044 93° East 505 581 37,000 -49 Level Salt Lake Center
Mon 04:26:54 PM 48.0803 -108.8531 94° East 507 583 36,900  Descending Salt Lake Center
Mon 04:27:55 PM 48.0742 -108.6456 92° East 502 578 37,000 49 Climbing Salt Lake Center
Mon 04:28:57 PM 48.0639 -108.4375 94° East 503 579 37,000  Level Salt Lake Center
Mon 04:29:58 PM 48.0550 -108.2303 94° East 502 578 37,000  Level Salt Lake Center
Mon 04:31:00 PM 48.0447 -108.0244 94° East 499 574 37,000  Level Salt Lake Center
Mon 04:32:01 PM 48.0342 -107.8164 94° East 503 579 37,000 -49 Level Salt Lake Center
Mon 04:33:02 PM 48.0233 -107.6081 94° East 504 580 36,900  Descending Salt Lake Center
Mon 04:34:04 PM 48.0108 -107.3717 94° East 501 577 37,000 49 Climbing Salt Lake Center
Mon 04:35:05 PM 47.9981 -107.1661 95° East 499 574 37,000  Level Salt Lake Center
Mon 04:36:07 PM 47.9856 -106.9600 95° East 500 575 37,000  Level Salt Lake Center
Mon 04:37:08 PM 47.9736 -106.7514 95° East 505 581 37,000 -49 Level Salt Lake Center
Mon 04:38:10 PM 47.9606 -106.5408 95° East 510 587 36,900  Descending Salt Lake Center
Mon 04:39:11 PM 47.9467 -106.3292 96° East 513 590 37,000  Climbing Salt Lake Center
Mon 04:40:13 PM 47.9314 -106.1172 96° East 515 593 36,900  Descending Salt Lake Center
Mon 04:41:14 PM 47.9172 -105.9044 96° East 517 595 37,000 49 Climbing Salt Lake Center
Mon 04:42:16 PM 47.8994 -105.6525 96° East 513 590 37,000  Level Salt Lake Center
Mon 04:43:17 PM 47.8844 -105.4442 96° East 510 587 37,000  Level Salt Lake Center
Mon 04:44:19 PM 47.8697 -105.2367 96° East 508 585 37,000 -49 Level Salt Lake Center
Mon 04:45:20 PM 47.8533 -105.0303 97° East 505 581 36,900  Descending Salt Lake Center
Mon 04:46:22 PM 47.8383 -104.8233 96° East 504 580 37,000 49 Climbing Salt Lake Center
Mon 04:47:23 PM 47.8228 -104.6181 96° East 503 579 37,000  Level Salt Lake Center
Mon 04:48:25 PM 47.8064 -104.4122 97° East 503 579 37,000  Level Salt Lake Center
Mon 04:49:26 PM 47.7892 -104.2086 97° East 500 575 37,000  Level Salt Lake Center
Mon 04:50:28 PM 47.7719 -104.0033 97° East 499 574 37,000  Level Salt Lake Center
Mon 04:51:29 PM 47.7508 -103.7714 98° East 498 573 37,000  Level Salt Lake Center
Mon 04:52:43 PM 47.7317 -103.5428 97° East 496 571 37,000  Level Salt Lake Center
Mon 04:53:45 PM 47.7094 -103.2975 98° East 499 574 37,000  Level Salt Lake Center
Mon 04:54:46 PM 47.6900 -103.0931 98° East 499 574 37,000  Level Salt Lake Center
Mon 04:55:06 PM 47.6864 -103.0547 98° East 500 575 37,000  Level Minneapolis Center
Mon 04:56:08 PM 47.6683 -102.8494 97° East 501 577 37,000  Level Minneapolis Center
Mon 04:57:10 PM 47.6442 -102.6067 98° East 499 574 37,000  Level Minneapolis Center
Mon 04:58:12 PM 47.6256 -102.4003 98° East 501 577 37,000  Level Minneapolis Center
Mon 04:59:14 PM 47.6064 -102.1967 98° East 500 575 37,000  Level Minneapolis Center
Mon 05:00:16 PM 47.5844 -101.9917 99° East 502 578 37,000  Level Minneapolis Center
Mon 05:01:18 PM 47.5642 -101.7875 98° East 502 578 37,000  Level Minneapolis Center
Mon 05:02:20 PM 47.5431 -101.5811 99° East 505 581 37,000  Level Minneapolis Center
Mon 05:03:22 PM 47.5167 -101.3322 99° East 509 586 37,000  Level Minneapolis Center
Mon 05:04:36 PM 47.4931 -101.1236 99° East 513 590 37,000  Level Minneapolis Center
Mon 05:05:39 PM 47.4658 -100.8697 99° East 511 588 37,000  Level Minneapolis Center
Mon 05:06:40 PM 47.4408 -100.6633 100° East 510 587 37,000  Level Minneapolis Center
Mon 05:07:42 PM 47.4125 -100.4567 101° East 513 590 37,000  Level Minneapolis Center
Mon 05:08:44 PM 47.3892 -100.2539 100° East 507 583 37,000  Level Minneapolis Center
Mon 05:09:46 PM 47.3692 -100.0933 100° East 503 579 37,000  Level Minneapolis Center
Mon 05:10:48 PM 47.3344 -99.8094 100° East 504 580 37,000  Level Minneapolis Center
Mon 05:11:50 PM 47.3094 -99.6078 100° East 503 579 37,000  Level Minneapolis Center
Mon 05:12:52 PM 47.2839 -99.4067 101° East 503 579 37,000  Level Minneapolis Center
Mon 05:13:54 PM 47.2572 -99.2075 101° East 500 575 37,000 -532 Level Minneapolis Center
Mon 05:14:56 PM 47.2322 -99.0122 101° East 493 567 35,900 -1,887 Descending Minneapolis Center
Mon 05:15:58 PM 47.2069 -98.8183 101° East 487 560 33,100 -3,048 Descending Minneapolis Center
Mon 05:17:00 PM 47.1744 -98.5825 101° East 492 566 29,600 -2,779 Descending Minneapolis Center
Mon 05:18:14 PM 47.1483 -98.3861 101° East 494 568 26,800 -2,779 Descending Minneapolis Center
Mon 05:19:16 PM 47.1178 -98.1581 101° East 488 562 23,300 -2,952 Descending Minneapolis Center
Mon 05:20:18 PM 47.0911 -97.9686 102° East 484 557 20,700 -2,468 Descending Minneapolis Center
Mon 05:21:20 PM 47.0661 -97.7975 102° East 446 513 18,200 -2,855 Descending Minneapolis Center
Mon 05:22:22 PM 47.0456 -97.5917 98° East 421 484 14,800 -2,855 Descending Minneapolis Center
Mon 05:23:24 PM 47.0406 -97.4614 93° East 403 464 12,300 -2,565 Descending Minneapolis Center
Mon 05:24:26 PM 47.0544 -97.2842 83° East 338 389 9,500 -1,984 Descending Minneapolis Center
Mon 05:25:28 PM 47.0786 -97.1747 72° East 296 341 8,200 -1,355 Descending Minneapolis Center
Mon 05:26:30 PM 47.1014 -97.0828 70° East 275 316 6,700 -1,742 Descending Minneapolis Center
Mon 05:27:32 PM 47.1364 -96.9606 67° East 267 307 4,600 -1,403 Descending Minneapolis Center
Mon 05:28:34 PM 47.1433 -96.8636 84° East 219 252 3,800 -629 Descending Minneapolis Center
Mon 05:29:36 PM 47.1156 -96.8119 128° Southeast 178 205 3,300 -581 Descending Minneapolis Center
Mon 05:30:38 PM 47.0683 -96.8144 182° South 172 198 2,600 -387 Descending Minneapolis Center
Mon 05:31:40 PM 47.0186 -96.8147 180° South 172 198 2,500 -290 Descending Minneapolis Center
Mon 05:32:42 PM 46.9856 -96.8156 181° South 116 133 2,000 -581 Descending Minneapolis Center
Mon 05:33:44 PM 46.9542 -96.8156 180° South 110 127 1,300 -677 Descending Minneapolis Center
Mon 05:35:00 PM 46.9167 -96.8000 171° South  Level FlightAware Approximate
Mon 05:42:00 PM 46.9207 -96.8158 171° South  Level Estimated

Login

Don't have an account? Register now (free) for customized features, flight alerts, and more!